sensor_id;sensor_type;location;lat;lon;timestamp;P1;durP1;ratioP1;P2;durP2;ratioP2
38851;SDS011;24605;50.092;9.182;2022-09-04T00:02:37;5.50;;;3.90;;
38851;SDS011;24605;50.092;9.182;2022-09-04T00:05:21;6.50;;;3.88;;
38851;SDS011;24605;50.092;9.182;2022-09-04T00:07:56;4.85;;;3.55;;
38851;SDS011;24605;50.092;9.182;2022-09-04T00:10:37;5.57;;;4.07;;
38851;SDS011;24605;50.092;9.182;2022-09-04T00:13:13;6.03;;;4.32;;
38851;SDS011;24605;50.092;9.182;2022-09-04T00:15:43;5.40;;;4.05;;
38851;SDS011;24605;50.092;9.182;2022-09-04T00:18:15;4.50;;;3.38;;
38851;SDS011;24605;50.092;9.182;2022-09-04T00:20:47;4.93;;;3.10;;
38851;SDS011;24605;50.092;9.182;2022-09-04T00:23:21;4.60;;;3.50;;
38851;SDS011;24605;50.092;9.182;2022-09-04T00:25:55;5.57;;;3.30;;
38851;SDS011;24605;50.092;9.182;2022-09-04T00:28:29;5.38;;;3.70;;
38851;SDS011;24605;50.092;9.182;2022-09-04T00:31:01;5.93;;;3.55;;
38851;SDS011;24605;50.092;9.182;2022-09-04T00:33:38;5.30;;;4.00;;
38851;SDS011;24605;50.092;9.182;2022-09-04T00:36:12;4.65;;;3.45;;
38851;SDS011;24605;50.092;9.182;2022-09-04T00:38:43;4.97;;;3.60;;
38851;SDS011;24605;50.092;9.182;2022-09-04T00:41:18;5.10;;;3.58;;
38851;SDS011;24605;50.092;9.182;2022-09-04T00:53:04;5.20;;;3.60;;
38851;SDS011;24605;50.092;9.182;2022-09-04T00:55:51;4.53;;;3.50;;
38851;SDS011;24605;50.092;9.182;2022-09-04T01:00:59;5.97;;;3.78;;
38851;SDS011;24605;50.092;9.182;2022-09-04T01:03:30;5.25;;;3.28;;
38851;SDS011;24605;50.092;9.182;2022-09-04T01:06:14;4.60;;;3.33;;
38851;SDS011;24605;50.092;9.182;2022-09-04T01:09:00;6.93;;;3.70;;
38851;SDS011;24605;50.092;9.182;2022-09-04T01:11:52;5.75;;;3.75;;
38851;SDS011;24605;50.092;9.182;2022-09-04T01:14:34;6.03;;;3.80;;
38851;SDS011;24605;50.092;9.182;2022-09-04T01:17:08;5.72;;;3.40;;
38851;SDS011;24605;50.092;9.182;2022-09-04T01:19:49;5.32;;;3.80;;
38851;SDS011;24605;50.092;9.182;2022-09-04T01:22:31;6.28;;;3.83;;
38851;SDS011;24605;50.092;9.182;2022-09-04T01:25:20;6.05;;;4.00;;
38851;SDS011;24605;50.092;9.182;2022-09-04T01:28:01;5.30;;;3.92;;
38851;SDS011;24605;50.092;9.182;2022-09-04T01:30:33;6.18;;;4.55;;
38851;SDS011;24605;50.092;9.182;2022-09-04T01:33:09;5.85;;;4.53;;
38851;SDS011;24605;50.092;9.182;2022-09-04T01:35:47;5.75;;;4.40;;
38851;SDS011;24605;50.092;9.182;2022-09-04T01:38:21;6.80;;;5.00;;
38851;SDS011;24605;50.092;9.182;2022-09-04T01:40:57;7.90;;;4.88;;
38851;SDS011;24605;50.092;9.182;2022-09-04T01:43:32;6.25;;;4.53;;
38851;SDS011;24605;50.092;9.182;2022-09-04T01:46:05;6.03;;;4.57;;
38851;SDS011;24605;50.092;9.182;2022-09-04T01:48:52;6.70;;;5.13;;
38851;SDS011;24605;50.092;9.182;2022-09-04T01:51:26;6.18;;;4.85;;
38851;SDS011;24605;50.092;9.182;2022-09-04T01:54:03;6.63;;;5.00;;
38851;SDS011;24605;50.092;9.182;2022-09-04T01:56:39;6.75;;;5.07;;
38851;SDS011;24605;50.092;9.182;2022-09-04T01:59:14;8.05;;;5.00;;
38851;SDS011;24605;50.092;9.182;2022-09-04T02:01:51;7.20;;;5.45;;
38851;SDS011;24605;50.092;9.182;2022-09-04T02:04:24;6.82;;;5.03;;
38851;SDS011;24605;50.092;9.182;2022-09-04T02:06:56;7.18;;;5.20;;
38851;SDS011;24605;50.092;9.182;2022-09-04T02:09:34;6.25;;;4.90;;
38851;SDS011;24605;50.092;9.182;2022-09-04T02:12:10;6.85;;;5.40;;
38851;SDS011;24605;50.092;9.182;2022-09-04T02:14:52;6.93;;;4.93;;
38851;SDS011;24605;50.092;9.182;2022-09-04T02:17:30;6.90;;;5.30;;
38851;SDS011;24605;50.092;9.182;2022-09-04T02:20:11;6.40;;;4.90;;
38851;SDS011;24605;50.092;9.182;2022-09-04T02:22:50;6.88;;;5.13;;
38851;SDS011;24605;50.092;9.182;2022-09-04T02:25:25;6.30;;;4.47;;
38851;SDS011;24605;50.092;9.182;2022-09-04T02:27:58;6.82;;;4.95;;
38851;SDS011;24605;50.092;9.182;2022-09-04T02:30:36;7.53;;;4.65;;
38851;SDS011;24605;50.092;9.182;2022-09-04T02:33:10;6.53;;;5.10;;
38851;SDS011;24605;50.092;9.182;2022-09-04T02:35:45;8.85;;;5.43;;
38851;SDS011;24605;50.092;9.182;2022-09-04T02:38:21;6.95;;;5.80;;
38851;SDS011;24605;50.092;9.182;2022-09-04T02:40:57;6.95;;;5.38;;
38851;SDS011;24605;50.092;9.182;2022-09-04T02:43:34;7.25;;;5.78;;
38851;SDS011;24605;50.092;9.182;2022-09-04T02:46:13;7.18;;;5.63;;
38851;SDS011;24605;50.092;9.182;2022-09-04T02:48:49;8.77;;;6.28;;
38851;SDS011;24605;50.092;9.182;2022-09-04T02:51:29;9.00;;;6.50;;
38851;SDS011;24605;50.092;9.182;2022-09-04T02:54:13;9.82;;;7.22;;
38851;SDS011;24605;50.092;9.182;2022-09-04T02:56:51;9.55;;;7.15;;
38851;SDS011;24605;50.092;9.182;2022-09-04T02:59:34;9.32;;;7.18;;
38851;SDS011;24605;50.092;9.182;2022-09-04T03:02:14;7.82;;;6.25;;
38851;SDS011;24605;50.092;9.182;2022-09-04T03:04:48;8.40;;;6.18;;
38851;SDS011;24605;50.092;9.182;2022-09-04T03:07:23;8.73;;;6.47;;
38851;SDS011;24605;50.092;9.182;2022-09-04T03:09:56;7.20;;;5.82;;
38851;SDS011;24605;50.092;9.182;2022-09-04T03:12:31;8.75;;;6.20;;
38851;SDS011;24605;50.092;9.182;2022-09-04T03:15:03;8.27;;;6.35;;
38851;SDS011;24605;50.092;9.182;2022-09-04T03:17:41;9.13;;;6.90;;
38851;SDS011;24605;50.092;9.182;2022-09-04T03:20:15;8.68;;;6.38;;
38851;SDS011;24605;50.092;9.182;2022-09-04T03:22:47;7.80;;;6.38;;
38851;SDS011;24605;50.092;9.182;2022-09-04T03:25:33;9.65;;;6.93;;
38851;SDS011;24605;50.092;9.182;2022-09-04T03:28:15;8.48;;;6.10;;
38851;SDS011;24605;50.092;9.182;2022-09-04T03:30:50;7.88;;;5.82;;
38851;SDS011;24605;50.092;9.182;2022-09-04T03:33:25;7.43;;;5.97;;
38851;SDS011;24605;50.092;9.182;2022-09-04T03:35:59;7.65;;;6.15;;
38851;SDS011;24605;50.092;9.182;2022-09-04T03:38:33;9.23;;;6.63;;
38851;SDS011;24605;50.092;9.182;2022-09-04T03:41:12;6.82;;;5.75;;
38851;SDS011;24605;50.092;9.182;2022-09-04T03:43:57;8.88;;;6.15;;
38851;SDS011;24605;50.092;9.182;2022-09-04T03:46:36;7.93;;;5.80;;
38851;SDS011;24605;50.092;9.182;2022-09-04T03:49:16;9.05;;;6.40;;
38851;SDS011;24605;50.092;9.182;2022-09-04T03:51:55;9.85;;;6.45;;
38851;SDS011;24605;50.092;9.182;2022-09-04T03:54:34;8.80;;;6.90;;
38851;SDS011;24605;50.092;9.182;2022-09-04T03:57:14;8.15;;;6.75;;
38851;SDS011;24605;50.092;9.182;2022-09-04T03:59:58;9.95;;;6.20;;
38851;SDS011;24605;50.092;9.182;2022-09-04T04:02:33;8.80;;;7.00;;
38851;SDS011;24605;50.092;9.182;2022-09-04T04:07:53;7.85;;;6.35;;
38851;SDS011;24605;50.092;9.182;2022-09-04T04:10:31;10.85;;;6.75;;
38851;SDS011;24605;50.092;9.182;2022-09-04T04:13:10;7.63;;;5.93;;
38851;SDS011;24605;50.092;9.182;2022-09-04T04:15:56;7.07;;;6.07;;
38851;SDS011;24605;50.092;9.182;2022-09-04T04:21:46;8.77;;;6.78;;
38851;SDS011;24605;50.092;9.182;2022-09-04T04:24:30;8.80;;;6.38;;
38851;SDS011;24605;50.092;9.182;2022-09-04T04:27:14;9.40;;;6.22;;
38851;SDS011;24605;50.092;9.182;2022-09-04T04:35:28;9.32;;;6.55;;
38851;SDS011;24605;50.092;9.182;2022-09-04T04:38:23;9.18;;;6.70;;
38851;SDS011;24605;50.092;9.182;2022-09-04T04:41:02;8.65;;;6.70;;
38851;SDS011;24605;50.092;9.182;2022-09-04T04:43:40;8.60;;;6.65;;
38851;SDS011;24605;50.092;9.182;2022-09-04T04:46:22;8.30;;;6.70;;
38851;SDS011;24605;50.092;9.182;2022-09-04T04:51:58;7.50;;;6.18;;
38851;SDS011;24605;50.092;9.182;2022-09-04T04:54:49;7.80;;;6.03;;
38851;SDS011;24605;50.092;9.182;2022-09-04T04:57:30;7.65;;;6.35;;
38851;SDS011;24605;50.092;9.182;2022-09-04T05:00:05;7.63;;;6.03;;
38851;SDS011;24605;50.092;9.182;2022-09-04T05:02:38;7.32;;;5.90;;
38851;SDS011;24605;50.092;9.182;2022-09-04T05:05:16;6.47;;;5.18;;
38851;SDS011;24605;50.092;9.182;2022-09-04T05:07:52;7.50;;;5.13;;
38851;SDS011;24605;50.092;9.182;2022-09-04T05:10:28;7.70;;;5.70;;
38851;SDS011;24605;50.092;9.182;2022-09-04T05:13:02;6.38;;;5.10;;
38851;SDS011;24605;50.092;9.182;2022-09-04T05:15:37;6.85;;;5.30;;
38851;SDS011;24605;50.092;9.182;2022-09-04T05:18:09;7.10;;;5.07;;
38851;SDS011;24605;50.092;9.182;2022-09-04T05:20:41;6.60;;;5.35;;
38851;SDS011;24605;50.092;9.182;2022-09-04T05:23:19;7.28;;;5.13;;
38851;SDS011;24605;50.092;9.182;2022-09-04T05:25:56;7.20;;;5.05;;
38851;SDS011;24605;50.092;9.182;2022-09-04T05:28:28;5.88;;;4.57;;
38851;SDS011;24605;50.092;9.182;2022-09-04T05:31:06;6.00;;;4.45;;
38851;SDS011;24605;50.092;9.182;2022-09-04T05:33:43;6.22;;;5.18;;
38851;SDS011;24605;50.092;9.182;2022-09-04T05:36:22;7.47;;;4.85;;
38851;SDS011;24605;50.092;9.182;2022-09-04T05:38:56;5.28;;;4.28;;
38851;SDS011;24605;50.092;9.182;2022-09-04T05:41:35;7.13;;;4.38;;
38851;SDS011;24605;50.092;9.182;2022-09-04T05:44:16;6.00;;;4.50;;
38851;SDS011;24605;50.092;9.182;2022-09-04T05:47:03;5.85;;;4.50;;
38851;SDS011;24605;50.092;9.182;2022-09-04T05:49:40;6.63;;;5.00;;
38851;SDS011;24605;50.092;9.182;2022-09-04T05:55:42;7.70;;;4.90;;
38851;SDS011;24605;50.092;9.182;2022-09-04T05:58:30;7.97;;;5.05;;
38851;SDS011;24605;50.092;9.182;2022-09-04T06:01:07;9.13;;;5.57;;
38851;SDS011;24605;50.092;9.182;2022-09-04T06:03:51;8.10;;;5.13;;
38851;SDS011;24605;50.092;9.182;2022-09-04T06:06:34;7.40;;;4.70;;
38851;SDS011;24605;50.092;9.182;2022-09-04T06:09:11;7.82;;;4.80;;
38851;SDS011;24605;50.092;9.182;2022-09-04T06:11:59;8.00;;;3.60;;
38851;SDS011;24605;50.092;9.182;2022-09-04T06:14:44;5.80;;;3.42;;
38851;SDS011;24605;50.092;9.182;2022-09-04T06:17:28;8.10;;;4.05;;
38851;SDS011;24605;50.092;9.182;2022-09-04T06:20:20;5.13;;;3.80;;
38851;SDS011;24605;50.092;9.182;2022-09-04T06:23:06;4.72;;;3.38;;
38851;SDS011;24605;50.092;9.182;2022-09-04T06:28:59;3.85;;;2.75;;
38851;SDS011;24605;50.092;9.182;2022-09-04T06:31:45;8.70;;;3.15;;
38851;SDS011;24605;50.092;9.182;2022-09-04T06:34:24;5.93;;;3.00;;
38851;SDS011;24605;50.092;9.182;2022-09-04T06:37:06;3.75;;;2.30;;
38851;SDS011;24605;50.092;9.182;2022-09-04T06:39:53;5.43;;;2.75;;
38851;SDS011;24605;50.092;9.182;2022-09-04T06:42:35;3.65;;;2.70;;
38851;SDS011;24605;50.092;9.182;2022-09-04T06:45:21;6.38;;;3.00;;
38851;SDS011;24605;50.092;9.182;2022-09-04T06:47:58;4.40;;;2.83;;
38851;SDS011;24605;50.092;9.182;2022-09-04T06:50:30;4.70;;;3.08;;
38851;SDS011;24605;50.092;9.182;2022-09-04T06:53:06;5.63;;;3.33;;
38851;SDS011;24605;50.092;9.182;2022-09-04T06:55:46;4.03;;;2.83;;
38851;SDS011;24605;50.092;9.182;2022-09-04T06:58:35;4.47;;;3.20;;
38851;SDS011;24605;50.092;9.182;2022-09-04T07:01:10;4.93;;;3.63;;
38851;SDS011;24605;50.092;9.182;2022-09-04T07:03:44;6.28;;;3.30;;
38851;SDS011;24605;50.092;9.182;2022-09-04T07:11:36;6.05;;;3.58;;
38851;SDS011;24605;50.092;9.182;2022-09-04T07:14:27;4.68;;;3.25;;
38851;SDS011;24605;50.092;9.182;2022-09-04T07:17:17;5.10;;;3.50;;
38851;SDS011;24605;50.092;9.182;2022-09-04T07:20:00;5.18;;;3.35;;
38851;SDS011;24605;50.092;9.182;2022-09-04T07:22:49;5.22;;;3.22;;
38851;SDS011;24605;50.092;9.182;2022-09-04T07:25:36;4.97;;;3.45;;
38851;SDS011;24605;50.092;9.182;2022-09-04T07:28:24;4.75;;;3.08;;
38851;SDS011;24605;50.092;9.182;2022-09-04T07:31:02;4.88;;;3.28;;
38851;SDS011;24605;50.092;9.182;2022-09-04T07:33:34;4.35;;;3.00;;
38851;SDS011;24605;50.092;9.182;2022-09-04T07:36:16;5.57;;;3.70;;
38851;SDS011;24605;50.092;9.182;2022-09-04T07:38:51;6.85;;;3.75;;
38851;SDS011;24605;50.092;9.182;2022-09-04T07:41:25;7.90;;;3.33;;
38851;SDS011;24605;50.092;9.182;2022-09-04T07:43:59;5.20;;;3.45;;
38851;SDS011;24605;50.092;9.182;2022-09-04T07:46:33;4.57;;;3.17;;
38851;SDS011;24605;50.092;9.182;2022-09-04T07:49:09;6.13;;;3.20;;
38851;SDS011;24605;50.092;9.182;2022-09-04T07:51:44;4.65;;;2.75;;
38851;SDS011;24605;50.092;9.182;2022-09-04T07:54:27;4.75;;;2.67;;
38851;SDS011;24605;50.092;9.182;2022-09-04T07:57:08;4.47;;;2.92;;
38851;SDS011;24605;50.092;9.182;2022-09-04T07:59:48;9.18;;;2.80;;
38851;SDS011;24605;50.092;9.182;2022-09-04T08:02:30;8.43;;;4.85;;
38851;SDS011;24605;50.092;9.182;2022-09-04T08:05:15;8.52;;;4.90;;
38851;SDS011;24605;50.092;9.182;2022-09-04T08:08:11;8.00;;;5.22;;
38851;SDS011;24605;50.092;9.182;2022-09-04T08:16:51;9.43;;;5.60;;
38851;SDS011;24605;50.092;9.182;2022-09-04T08:19:49;6.13;;;4.45;;
38851;SDS011;24605;50.092;9.182;2022-09-04T08:22:26;7.15;;;4.80;;
38851;SDS011;24605;50.092;9.182;2022-09-04T08:25:10;6.25;;;4.45;;
38851;SDS011;24605;50.092;9.182;2022-09-04T08:27:53;5.25;;;3.47;;
38851;SDS011;24605;50.092;9.182;2022-09-04T08:30:33;4.70;;;3.58;;
38851;SDS011;24605;50.092;9.182;2022-09-04T08:33:13;7.57;;;3.45;;
38851;SDS011;24605;50.092;9.182;2022-09-04T08:35:55;7.07;;;3.45;;
38851;SDS011;24605;50.092;9.182;2022-09-04T08:38:31;5.47;;;4.03;;
38851;SDS011;24605;50.092;9.182;2022-09-04T08:47:17;5.63;;;3.45;;
38851;SDS011;24605;50.092;9.182;2022-09-04T08:50:24;6.63;;;3.45;;
38851;SDS011;24605;50.092;9.182;2022-09-04T08:56:07;4.13;;;2.67;;
38851;SDS011;24605;50.092;9.182;2022-09-04T09:05:01;7.60;;;3.63;;
38851;SDS011;24605;50.092;9.182;2022-09-04T09:07:47;7.00;;;3.50;;
38851;SDS011;24605;50.092;9.182;2022-09-04T09:10:34;4.82;;;3.20;;
38851;SDS011;24605;50.092;9.182;2022-09-04T09:16:21;5.03;;;3.08;;
38851;SDS011;24605;50.092;9.182;2022-09-04T09:19:17;6.13;;;3.40;;
38851;SDS011;24605;50.092;9.182;2022-09-04T09:21:52;6.47;;;3.28;;
38851;SDS011;24605;50.092;9.182;2022-09-04T09:30:43;5.03;;;3.40;;
38851;SDS011;24605;50.092;9.182;2022-09-04T09:36:38;5.60;;;3.65;;
38851;SDS011;24605;50.092;9.182;2022-09-04T09:39:55;4.20;;;3.03;;
38851;SDS011;24605;50.092;9.182;2022-09-04T09:45:49;5.70;;;3.50;;
38851;SDS011;24605;50.092;9.182;2022-09-04T09:51:42;6.63;;;3.20;;
38851;SDS011;24605;50.092;9.182;2022-09-04T09:57:36;5.30;;;3.40;;
38851;SDS011;24605;50.092;9.182;2022-09-04T10:00:30;6.93;;;3.28;;
38851;SDS011;24605;50.092;9.182;2022-09-04T10:06:09;6.50;;;3.42;;
38851;SDS011;24605;50.092;9.182;2022-09-04T10:08:50;4.60;;;3.17;;
38851;SDS011;24605;50.092;9.182;2022-09-04T10:14:49;4.05;;;2.70;;
38851;SDS011;24605;50.092;9.182;2022-09-04T10:17:51;4.28;;;3.10;;
38851;SDS011;24605;50.092;9.182;2022-09-04T10:20:34;4.65;;;2.95;;
38851;SDS011;24605;50.092;9.182;2022-09-04T10:26:22;6.10;;;3.05;;
38851;SDS011;24605;50.092;9.182;2022-09-04T10:32:00;7.57;;;3.70;;
38851;SDS011;24605;50.092;9.182;2022-09-04T10:40:50;4.63;;;2.92;;
38851;SDS011;24605;50.092;9.182;2022-09-04T10:43:59;7.28;;;3.45;;
38851;SDS011;24605;50.092;9.182;2022-09-04T10:46:38;7.93;;;2.97;;
38851;SDS011;24605;50.092;9.182;2022-09-04T10:49:16;7.18;;;3.20;;
38851;SDS011;24605;50.092;9.182;2022-09-04T10:52:03;5.13;;;2.58;;
38851;SDS011;24605;50.092;9.182;2022-09-04T10:55:06;4.88;;;2.53;;
38851;SDS011;24605;50.092;9.182;2022-09-04T10:57:51;6.03;;;2.70;;
38851;SDS011;24605;50.092;9.182;2022-09-04T11:00:37;4.57;;;2.65;;
38851;SDS011;24605;50.092;9.182;2022-09-04T11:03:18;5.72;;;2.42;;
38851;SDS011;24605;50.092;9.182;2022-09-04T11:09:12;4.10;;;2.25;;
38851;SDS011;24605;50.092;9.182;2022-09-04T11:11:59;5.28;;;2.40;;
38851;SDS011;24605;50.092;9.182;2022-09-04T11:14:51;3.90;;;2.22;;
38851;SDS011;24605;50.092;9.182;2022-09-04T11:17:41;4.90;;;2.40;;
38851;SDS011;24605;50.092;9.182;2022-09-04T11:20:34;4.60;;;2.47;;
38851;SDS011;24605;50.092;9.182;2022-09-04T11:26:53;5.65;;;2.75;;
38851;SDS011;24605;50.092;9.182;2022-09-04T11:29:50;4.50;;;2.30;;
38851;SDS011;24605;50.092;9.182;2022-09-04T11:32:42;3.78;;;2.13;;
38851;SDS011;24605;50.092;9.182;2022-09-04T11:38:15;5.38;;;2.22;;
38851;SDS011;24605;50.092;9.182;2022-09-04T11:47:01;4.85;;;2.53;;
38851;SDS011;24605;50.092;9.182;2022-09-04T11:52:49;4.53;;;2.72;;
38851;SDS011;24605;50.092;9.182;2022-09-04T11:55:38;4.55;;;2.70;;
38851;SDS011;24605;50.092;9.182;2022-09-04T11:58:31;6.05;;;3.47;;
38851;SDS011;24605;50.092;9.182;2022-09-04T12:01:32;7.93;;;4.03;;
38851;SDS011;24605;50.092;9.182;2022-09-04T12:04:17;7.82;;;3.40;;
38851;SDS011;24605;50.092;9.182;2022-09-04T12:06:59;7.40;;;3.42;;
38851;SDS011;24605;50.092;9.182;2022-09-04T12:09:59;7.35;;;3.42;;
38851;SDS011;24605;50.092;9.182;2022-09-04T12:12:58;5.78;;;3.10;;
38851;SDS011;24605;50.092;9.182;2022-09-04T12:15:38;5.97;;;3.38;;
38851;SDS011;24605;50.092;9.182;2022-09-04T12:24:32;5.55;;;2.63;;
38851;SDS011;24605;50.092;9.182;2022-09-04T12:27:29;4.32;;;2.70;;
38851;SDS011;24605;50.092;9.182;2022-09-04T12:30:22;5.30;;;2.58;;
38851;SDS011;24605;50.092;9.182;2022-09-04T12:36:04;4.75;;;2.65;;
38851;SDS011;24605;50.092;9.182;2022-09-04T12:38:54;5.07;;;2.78;;
38851;SDS011;24605;50.092;9.182;2022-09-04T12:41:40;5.57;;;2.50;;
38851;SDS011;24605;50.092;9.182;2022-09-04T12:44:23;6.28;;;2.72;;
38851;SDS011;24605;50.092;9.182;2022-09-04T12:47:05;5.47;;;2.50;;
38851;SDS011;24605;50.092;9.182;2022-09-04T12:49:56;4.15;;;2.28;;
38851;SDS011;24605;50.092;9.182;2022-09-04T12:52:35;4.78;;;2.53;;
38851;SDS011;24605;50.092;9.182;2022-09-04T12:55:17;4.85;;;2.60;;
38851;SDS011;24605;50.092;9.182;2022-09-04T12:57:55;5.30;;;2.78;;
38851;SDS011;24605;50.092;9.182;2022-09-04T13:00:33;4.05;;;2.28;;
38851;SDS011;24605;50.092;9.182;2022-09-04T13:03:07;4.72;;;2.40;;
38851;SDS011;24605;50.092;9.182;2022-09-04T13:08:34;4.25;;;2.40;;
38851;SDS011;24605;50.092;9.182;2022-09-04T13:11:15;4.90;;;2.60;;
38851;SDS011;24605;50.092;9.182;2022-09-04T13:13:56;5.05;;;2.30;;
38851;SDS011;24605;50.092;9.182;2022-09-04T13:16:36;5.22;;;2.35;;
38851;SDS011;24605;50.092;9.182;2022-09-04T13:19:12;4.68;;;2.30;;
38851;SDS011;24605;50.092;9.182;2022-09-04T13:21:58;3.72;;;2.10;;
38851;SDS011;24605;50.092;9.182;2022-09-04T13:24:35;4.47;;;2.00;;
38851;SDS011;24605;50.092;9.182;2022-09-04T13:27:18;4.10;;;2.30;;
38851;SDS011;24605;50.092;9.182;2022-09-04T13:29:58;3.47;;;1.95;;
38851;SDS011;24605;50.092;9.182;2022-09-04T13:32:39;3.35;;;1.85;;
38851;SDS011;24605;50.092;9.182;2022-09-04T13:35:16;4.18;;;1.77;;
38851;SDS011;24605;50.092;9.182;2022-09-04T13:38:03;4.88;;;2.10;;
38851;SDS011;24605;50.092;9.182;2022-09-04T13:44:12;4.25;;;2.17;;
38851;SDS011;24605;50.092;9.182;2022-09-04T13:46:57;4.88;;;2.40;;
38851;SDS011;24605;50.092;9.182;2022-09-04T13:49:30;4.18;;;2.22;;
38851;SDS011;24605;50.092;9.182;2022-09-04T13:52:03;5.63;;;2.20;;
38851;SDS011;24605;50.092;9.182;2022-09-04T13:54:35;2.75;;;1.80;;
38851;SDS011;24605;50.092;9.182;2022-09-04T13:57:05;4.72;;;2.40;;
38851;SDS011;24605;50.092;9.182;2022-09-04T14:02:06;4.15;;;2.25;;
38851;SDS011;24605;50.092;9.182;2022-09-04T14:04:38;8.13;;;2.42;;
38851;SDS011;24605;50.092;9.182;2022-09-04T14:07:09;4.93;;;2.38;;
38851;SDS011;24605;50.092;9.182;2022-09-04T14:09:43;3.42;;;1.95;;
38851;SDS011;24605;50.092;9.182;2022-09-04T14:12:19;3.78;;;2.17;;
38851;SDS011;24605;50.092;9.182;2022-09-04T14:15:10;3.53;;;2.10;;
38851;SDS011;24605;50.092;9.182;2022-09-04T14:18:17;3.45;;;2.03;;
38851;SDS011;24605;50.092;9.182;2022-09-04T14:20:54;3.75;;;2.13;;
38851;SDS011;24605;50.092;9.182;2022-09-04T14:23:25;4.13;;;2.47;;
38851;SDS011;24605;50.092;9.182;2022-09-04T14:26:02;3.92;;;2.38;;
38851;SDS011;24605;50.092;9.182;2022-09-04T14:28:32;4.18;;;2.53;;
38851;SDS011;24605;50.092;9.182;2022-09-04T14:31:10;3.28;;;2.33;;
38851;SDS011;24605;50.092;9.182;2022-09-04T14:33:43;4.50;;;2.30;;
38851;SDS011;24605;50.092;9.182;2022-09-04T14:36:22;3.63;;;2.20;;
38851;SDS011;24605;50.092;9.182;2022-09-04T14:39:04;4.40;;;2.33;;
38851;SDS011;24605;50.092;9.182;2022-09-04T14:41:46;4.88;;;2.53;;
38851;SDS011;24605;50.092;9.182;2022-09-04T14:47:02;3.97;;;2.40;;
38851;SDS011;24605;50.092;9.182;2022-09-04T14:49:38;3.60;;;2.33;;
38851;SDS011;24605;50.092;9.182;2022-09-04T14:52:10;3.83;;;2.33;;
38851;SDS011;24605;50.092;9.182;2022-09-04T14:54:42;3.13;;;2.10;;
38851;SDS011;24605;50.092;9.182;2022-09-04T14:57:11;3.50;;;2.30;;
38851;SDS011;24605;50.092;9.182;2022-09-04T14:59:43;5.28;;;2.50;;
38851;SDS011;24605;50.092;9.182;2022-09-04T15:02:22;4.40;;;2.45;;
38851;SDS011;24605;50.092;9.182;2022-09-04T15:04:58;4.00;;;2.60;;
38851;SDS011;24605;50.092;9.182;2022-09-04T15:07:30;3.75;;;2.30;;
38851;SDS011;24605;50.092;9.182;2022-09-04T15:10:15;3.72;;;2.40;;
38851;SDS011;24605;50.092;9.182;2022-09-04T15:12:49;3.70;;;2.15;;
38851;SDS011;24605;50.092;9.182;2022-09-04T15:15:20;3.83;;;2.25;;
38851;SDS011;24605;50.092;9.182;2022-09-04T15:17:56;4.00;;;2.33;;
38851;SDS011;24605;50.092;9.182;2022-09-04T15:20:28;4.75;;;2.10;;
38851;SDS011;24605;50.092;9.182;2022-09-04T15:23:03;3.10;;;2.00;;
38851;SDS011;24605;50.092;9.182;2022-09-04T15:25:42;3.10;;;2.03;;
38851;SDS011;24605;50.092;9.182;2022-09-04T15:28:15;4.03;;;2.13;;
38851;SDS011;24605;50.092;9.182;2022-09-04T15:30:56;4.65;;;1.65;;
38851;SDS011;24605;50.092;9.182;2022-09-04T15:33:29;2.97;;;1.58;;
38851;SDS011;24605;50.092;9.182;2022-09-04T15:36:00;2.90;;;1.63;;
38851;SDS011;24605;50.092;9.182;2022-09-04T15:38:33;2.70;;;1.60;;
38851;SDS011;24605;50.092;9.182;2022-09-04T15:41:02;2.85;;;1.50;;
38851;SDS011;24605;50.092;9.182;2022-09-04T15:43:42;6.75;;;1.40;;
38851;SDS011;24605;50.092;9.182;2022-09-04T15:46:15;2.35;;;1.48;;
38851;SDS011;24605;50.092;9.182;2022-09-04T15:48:48;3.00;;;1.60;;
38851;SDS011;24605;50.092;9.182;2022-09-04T15:51:22;2.17;;;1.30;;
38851;SDS011;24605;50.092;9.182;2022-09-04T15:54:20;3.33;;;1.33;;
38851;SDS011;24605;50.092;9.182;2022-09-04T15:57:00;2.88;;;1.42;;
38851;SDS011;24605;50.092;9.182;2022-09-04T15:59:35;3.25;;;1.50;;
38851;SDS011;24605;50.092;9.182;2022-09-04T16:02:10;3.05;;;1.45;;
38851;SDS011;24605;50.092;9.182;2022-09-04T16:04:48;3.20;;;1.60;;
38851;SDS011;24605;50.092;9.182;2022-09-04T16:07:28;2.78;;;1.45;;
38851;SDS011;24605;50.092;9.182;2022-09-04T16:10:07;2.58;;;1.30;;
38851;SDS011;24605;50.092;9.182;2022-09-04T16:12:39;2.65;;;1.30;;
38851;SDS011;24605;50.092;9.182;2022-09-04T16:15:15;3.38;;;1.42;;
38851;SDS011;24605;50.092;9.182;2022-09-04T16:17:49;2.58;;;1.20;;
38851;SDS011;24605;50.092;9.182;2022-09-04T16:20:19;3.20;;;1.60;;
38851;SDS011;24605;50.092;9.182;2022-09-04T16:22:52;2.15;;;1.30;;
38851;SDS011;24605;50.092;9.182;2022-09-04T16:25:24;2.17;;;1.23;;
38851;SDS011;24605;50.092;9.182;2022-09-04T16:27:55;2.65;;;1.52;;
38851;SDS011;24605;50.092;9.182;2022-09-04T16:30:30;2.47;;;1.40;;
38851;SDS011;24605;50.092;9.182;2022-09-04T16:33:01;3.55;;;1.48;;
38851;SDS011;24605;50.092;9.182;2022-09-04T16:35:31;2.97;;;1.50;;
38851;SDS011;24605;50.092;9.182;2022-09-04T16:38:02;2.75;;;1.55;;
38851;SDS011;24605;50.092;9.182;2022-09-04T16:40:34;3.55;;;1.58;;
38851;SDS011;24605;50.092;9.182;2022-09-04T16:43:07;4.15;;;1.73;;
38851;SDS011;24605;50.092;9.182;2022-09-04T16:45:44;3.10;;;1.65;;
38851;SDS011;24605;50.092;9.182;2022-09-04T16:48:16;2.83;;;1.73;;
38851;SDS011;24605;50.092;9.182;2022-09-04T16:53:20;2.90;;;1.48;;
38851;SDS011;24605;50.092;9.182;2022-09-04T16:55:57;3.10;;;1.50;;
38851;SDS011;24605;50.092;9.182;2022-09-04T16:58:35;3.22;;;1.58;;
38851;SDS011;24605;50.092;9.182;2022-09-04T17:01:14;2.75;;;1.60;;
38851;SDS011;24605;50.092;9.182;2022-09-04T17:03:55;2.28;;;1.20;;
38851;SDS011;24605;50.092;9.182;2022-09-04T17:06:30;2.83;;;1.25;;
38851;SDS011;24605;50.092;9.182;2022-09-04T17:09:07;2.53;;;1.30;;
38851;SDS011;24605;50.092;9.182;2022-09-04T17:11:44;2.88;;;1.30;;
38851;SDS011;24605;50.092;9.182;2022-09-04T17:14:16;2.03;;;1.20;;
38851;SDS011;24605;50.092;9.182;2022-09-04T17:16:49;3.35;;;1.30;;
38851;SDS011;24605;50.092;9.182;2022-09-04T17:19:18;4.18;;;1.60;;
38851;SDS011;24605;50.092;9.182;2022-09-04T17:21:56;2.63;;;1.30;;
38851;SDS011;24605;50.092;9.182;2022-09-04T17:24:52;2.55;;;1.52;;
38851;SDS011;24605;50.092;9.182;2022-09-04T17:27:24;3.13;;;1.40;;
38851;SDS011;24605;50.092;9.182;2022-09-04T17:29:57;3.28;;;1.30;;
38851;SDS011;24605;50.092;9.182;2022-09-04T17:32:27;2.47;;;1.40;;
38851;SDS011;24605;50.092;9.182;2022-09-04T17:34:58;2.50;;;1.30;;
38851;SDS011;24605;50.092;9.182;2022-09-04T17:37:34;2.10;;;1.20;;
38851;SDS011;24605;50.092;9.182;2022-09-04T17:40:07;2.55;;;1.35;;
38851;SDS011;24605;50.092;9.182;2022-09-04T17:42:49;2.35;;;1.20;;
38851;SDS011;24605;50.092;9.182;2022-09-04T17:45:30;3.88;;;1.40;;
38851;SDS011;24605;50.092;9.182;2022-09-04T17:48:13;2.55;;;1.38;;
38851;SDS011;24605;50.092;9.182;2022-09-04T17:50:46;3.72;;;1.70;;
38851;SDS011;24605;50.092;9.182;2022-09-04T17:53:14;3.28;;;1.40;;
38851;SDS011;24605;50.092;9.182;2022-09-04T17:55:46;3.13;;;1.40;;
38851;SDS011;24605;50.092;9.182;2022-09-04T17:58:23;4.00;;;1.93;;
38851;SDS011;24605;50.092;9.182;2022-09-04T18:00:57;2.60;;;1.48;;
38851;SDS011;24605;50.092;9.182;2022-09-04T18:03:31;2.85;;;1.70;;
38851;SDS011;24605;50.092;9.182;2022-09-04T18:06:04;3.42;;;1.70;;
38851;SDS011;24605;50.092;9.182;2022-09-04T18:08:34;5.40;;;2.33;;
38851;SDS011;24605;50.092;9.182;2022-09-04T18:11:07;3.67;;;2.17;;
38851;SDS011;24605;50.092;9.182;2022-09-04T18:13:39;4.53;;;2.20;;
38851;SDS011;24605;50.092;9.182;2022-09-04T18:16:32;4.00;;;2.15;;
38851;SDS011;24605;50.092;9.182;2022-09-04T18:19:13;3.72;;;1.90;;
38851;SDS011;24605;50.092;9.182;2022-09-04T18:21:42;3.17;;;1.95;;
38851;SDS011;24605;50.092;9.182;2022-09-04T18:24:14;2.50;;;1.45;;